Flugplatz Kempten-Durach

Für EDMK sind keine METAR/TAF Berichte vorhanden.
Es werden die Flugwettermeldungen vom Flugplatz Memmingen Allgau in 33 km Entfernung angezeigt.

Bericht für EDJA

vom 20.09. um 14:20 UTC

Wind 7 kt aus 10°

Sichtweite 10 km oder mehr

gute Sicht, keine Wolken < 5000 ft, keine CB, keine Wettererscheinungen (CAVOK)

Temperatur 22.0°C

Taupunkt 13.0°C

Luftfeuchtigkeit 57%

Luftdruck 1015 hPa

EDJA 201420Z 01007KT CAVOK 22/13 Q1015

Prognose für EDJA

vom 20.09. um 14:00 UTC

Zwischen 15:00 UTC und 22:00 UTC

Wind 5 kt aus 50°

Sichtweite 10 km oder mehr

keine signifikanten Wettererscheinungen

keine Wolken


Zwischen 22:00 und 00:00 UTC übergehend zu

Wind 5 kt aus 50°

Sichtweite 1200 m

Nebelschwaden

keine Wolken

TAF EDJA 201400Z 2015/2024 05005KT CAVOK BECMG 2022/2024 1200 BCFG
Impressum